createdAt,value
2023-05-14T00:04:53.715Z,9.05
2023-05-14T00:09:59.861Z,8.98
2023-05-14T00:15:06.119Z,8.98
2023-05-14T00:20:12.943Z,8.87
2023-05-14T00:25:18.479Z,8.78
2023-05-14T00:30:24.102Z,8.72
2023-05-14T00:35:29.902Z,8.64
2023-05-14T00:40:35.504Z,8.56
2023-05-14T00:45:41.048Z,8.57
2023-05-14T00:50:46.717Z,8.54
2023-05-14T00:55:53.184Z,8.69
2023-05-14T01:00:58.749Z,8.74
2023-05-14T01:06:14.266Z,8.65
2023-05-14T01:12:11.318Z,8.71
2023-05-14T01:17:23.559Z,8.75
2023-05-14T01:22:29.169Z,8.79
2023-05-14T01:27:38.346Z,8.98
2023-05-14T01:32:51.451Z,9.05
2023-05-14T01:38:00.368Z,9.11
2023-05-14T01:43:06.834Z,9.19
2023-05-14T01:48:14.626Z,9.24
2023-05-14T01:53:20.178Z,9.40
2023-05-14T01:58:25.831Z,9.73
2023-05-14T02:03:31.784Z,10.01
2023-05-14T02:08:37.308Z,10.21
2023-05-14T02:13:42.873Z,10.45
2023-05-14T02:18:48.525Z,10.67
2023-05-14T02:23:53.842Z,11.43
2023-05-14T02:28:59.507Z,11.51
2023-05-14T02:34:06.988Z,11.39
2023-05-14T02:39:12.374Z,11.49
2023-05-14T02:44:17.620Z,11.74
2023-05-14T02:49:23.177Z,12.24
2023-05-14T02:54:28.726Z,13.01
2023-05-14T02:59:34.310Z,13.84
2023-05-14T03:04:40.196Z,14.74
2023-05-14T03:09:45.879Z,15.55
2023-05-14T03:14:51.599Z,16.62
2023-05-14T03:19:57.393Z,17.62
2023-05-14T03:25:03.058Z,18.30
2023-05-14T03:30:10.321Z,18.69
2023-05-14T03:35:16.146Z,18.31
2023-05-14T03:40:21.966Z,18.17
2023-05-14T03:45:30.855Z,18.15
2023-05-14T03:50:37.893Z,18.39
2023-05-14T03:55:44.788Z,18.57
2023-05-14T04:00:50.714Z,19.27
2023-05-14T04:05:56.404Z,19.31
2023-05-14T04:11:01.802Z,19.57
2023-05-14T04:16:07.595Z,20.43
2023-05-14T04:21:13.948Z,20.90
2023-05-14T04:26:19.765Z,21.48
2023-05-14T04:31:25.467Z,21.89
2023-05-14T04:36:31.863Z,22.49
2023-05-14T04:41:37.473Z,22.95
2023-05-14T04:46:42.990Z,23.63
2023-05-14T04:51:48.868Z,24.02
2023-05-14T04:56:56.583Z,24.57
2023-05-14T05:02:02.032Z,25.35
2023-05-14T05:07:07.611Z,26.16
2023-05-14T05:12:13.431Z,26.25
2023-05-14T05:17:18.609Z,25.97
2023-05-14T05:22:25.046Z,26.20
2023-05-14T05:27:30.463Z,26.70
2023-05-14T05:32:35.880Z,27.78
2023-05-14T05:37:43.268Z,28.55
2023-05-14T05:42:48.885Z,28.41
2023-05-14T05:47:54.117Z,29.29
2023-05-14T05:53:02.755Z,29.66
2023-05-14T05:58:08.336Z,29.64
2023-05-14T06:03:14.492Z,30.25
2023-05-14T06:08:20.280Z,29.01
2023-05-14T06:13:25.703Z,27.59
2023-05-14T06:18:31.388Z,26.17
2023-05-14T06:23:36.938Z,25.75
2023-05-14T06:28:42.505Z,24.91
2023-05-14T06:33:48.822Z,24.86
2023-05-14T06:38:54.424Z,24.84
2023-05-14T06:43:59.900Z,24.85
2023-05-14T06:49:05.510Z,24.75
2023-05-14T06:54:11.066Z,24.77
2023-05-14T06:59:16.710Z,24.36
2023-05-14T07:04:22.159Z,24.39
2023-05-14T07:09:28.142Z,24.56
2023-05-14T07:14:33.656Z,24.43
2023-05-14T07:19:39.371Z,24.50
2023-05-14T07:24:44.955Z,24.45
2023-05-14T07:29:51.452Z,24.37
2023-05-14T07:34:57.438Z,24.65
2023-05-14T07:40:02.854Z,24.81
2023-05-14T07:45:10.564Z,24.18
2023-05-14T07:50:17.080Z,24.21
2023-05-14T07:55:22.805Z,24.37
2023-05-14T08:00:28.413Z,24.59
2023-05-14T08:05:34.113Z,24.64
2023-05-14T08:10:39.849Z,24.55
2023-05-14T08:15:45.357Z,24.98
2023-05-14T08:20:51.778Z,25.15
2023-05-14T08:25:57.631Z,24.20
2023-05-14T08:31:03.238Z,23.52
2023-05-14T08:36:09.189Z,23.08
2023-05-14T08:41:16.933Z,22.67
2023-05-14T08:46:25.739Z,22.51
2023-05-14T08:51:32.159Z,22.41
2023-05-14T08:56:39.684Z,22.50
2023-05-14T09:01:49.140Z,23.01
2023-05-14T09:06:56.195Z,22.79
2023-05-14T09:12:02.332Z,22.83
2023-05-14T09:17:09.152Z,23.01
2023-05-14T09:22:16.866Z,23.67
2023-05-14T09:27:23.217Z,24.02
2023-05-14T09:32:39.536Z,24.02
2023-05-14T09:37:51.540Z,23.72
2023-05-14T09:42:57.242Z,23.76
2023-05-14T09:48:04.053Z,23.95
2023-05-14T09:53:10.448Z,24.24
2023-05-14T09:58:16.286Z,24.18
2023-05-14T10:03:23.257Z,23.66
2023-05-14T10:08:34.344Z,23.50
2023-05-14T10:14:09.851Z,23.41
2023-05-14T10:19:18.320Z,23.91
2023-05-14T10:24:25.497Z,24.14
2023-05-14T10:29:36.183Z,24.29
2023-05-14T10:34:48.931Z,24.37
2023-05-14T10:40:01.333Z,24.45
2023-05-14T10:45:11.841Z,24.55
2023-05-14T10:50:19.545Z,24.08
2023-05-14T10:55:26.229Z,23.99
2023-05-14T11:00:34.660Z,23.54
2023-05-14T11:05:41.739Z,23.29
2023-05-14T11:10:47.695Z,22.86
2023-05-14T11:15:53.992Z,22.76
2023-05-14T11:21:03.322Z,22.78
2023-05-14T11:26:09.064Z,22.81
2023-05-14T11:31:15.273Z,22.89
2023-05-14T11:36:21.157Z,22.75
2023-05-14T11:41:28.598Z,22.73
2023-05-14T11:46:34.430Z,22.75
2023-05-14T11:51:40.095Z,22.86
2023-05-14T11:56:52.089Z,23.02
2023-05-14T12:01:58.143Z,22.93
2023-05-14T12:07:11.425Z,23.00
2023-05-14T12:12:19.987Z,22.97
2023-05-14T12:17:25.819Z,22.95
2023-05-14T12:22:31.601Z,22.77
2023-05-14T12:27:38.584Z,22.74
2023-05-14T12:32:43.954Z,22.92
2023-05-14T12:37:49.403Z,22.86
2023-05-14T12:42:56.718Z,22.68
2023-05-14T12:48:02.521Z,22.36
2023-05-14T12:53:07.986Z,22.25
2023-05-14T12:58:13.437Z,22.23
2023-05-14T13:03:18.692Z,22.20
2023-05-14T13:08:27.521Z,22.28
2023-05-14T13:13:32.956Z,22.23
2023-05-14T13:18:38.469Z,22.29
2023-05-14T13:23:44.160Z,22.46
2023-05-14T13:28:49.810Z,22.51
2023-05-14T13:33:55.368Z,22.46
2023-05-14T13:39:00.651Z,22.49
2023-05-14T13:44:06.394Z,22.55
2023-05-14T13:49:12.419Z,22.50
2023-05-14T13:54:17.916Z,22.52
2023-05-14T13:59:24.531Z,22.50
2023-05-14T14:04:29.736Z,22.33
2023-05-14T14:09:37.316Z,22.21
2023-05-14T14:14:42.834Z,22.14
2023-05-14T14:19:48.370Z,22.13
2023-05-14T14:24:55.284Z,22.00
2023-05-14T14:30:01.029Z,21.82
2023-05-14T14:35:13.906Z,21.85
2023-05-14T14:40:19.569Z,21.66
2023-05-14T14:45:25.616Z,21.48
2023-05-14T14:50:31.954Z,21.51
2023-05-14T14:55:38.103Z,21.39
2023-05-14T15:00:44.455Z,21.12
2023-05-14T15:05:50.289Z,20.94
2023-05-14T15:10:57.331Z,20.84
2023-05-14T15:16:02.973Z,20.67
2023-05-14T15:21:08.623Z,20.49
2023-05-14T15:26:14.422Z,20.43
2023-05-14T15:31:20.192Z,20.35
2023-05-14T15:36:29.133Z,20.15
2023-05-14T15:41:35.036Z,20.05
2023-05-14T15:46:40.528Z,19.82
2023-05-14T15:51:46.104Z,19.75
2023-05-14T15:56:51.658Z,19.59
2023-05-14T16:01:57.317Z,19.46
2023-05-14T16:07:27.632Z,19.08
2023-05-14T16:12:33.245Z,18.66
2023-05-14T16:17:39.128Z,18.44
2023-05-14T16:22:45.337Z,18.18
2023-05-14T16:27:50.979Z,17.80
2023-05-14T16:32:56.420Z,17.57
2023-05-14T16:38:02.355Z,17.30
2023-05-14T16:43:08.455Z,16.95
2023-05-14T16:48:13.999Z,16.54
2023-05-14T16:53:19.643Z,16.17
2023-05-14T16:58:25.137Z,16.20
2023-05-14T17:03:31.147Z,16.37
2023-05-14T17:08:36.680Z,17.14
2023-05-14T17:13:42.046Z,17.29
2023-05-14T17:18:47.486Z,17.25
2023-05-14T17:23:52.994Z,17.14
2023-05-14T17:28:58.525Z,17.03
2023-05-14T17:34:04.123Z,16.90
2023-05-14T17:39:09.834Z,16.68
2023-05-14T17:44:15.517Z,16.52
2023-05-14T17:49:20.993Z,16.29
2023-05-14T17:54:26.523Z,16.11
2023-05-14T17:59:32.091Z,15.93
2023-05-14T18:04:37.726Z,15.71
2023-05-14T18:09:43.212Z,15.58
2023-05-14T18:14:48.617Z,15.11
2023-05-14T18:19:54.197Z,15.38
2023-05-14T18:24:59.946Z,15.27
2023-05-14T18:30:06.034Z,15.19
2023-05-14T18:35:12.788Z,15.08
2023-05-14T18:40:19.076Z,15.01
2023-05-14T18:45:25.582Z,14.92
2023-05-14T18:50:31.374Z,14.84
2023-05-14T18:55:37.645Z,14.78
2023-05-14T19:00:43.000Z,14.73
2023-05-14T19:05:48.814Z,14.62
2023-05-14T19:10:54.482Z,14.36
2023-05-14T19:15:59.940Z,14.15
2023-05-14T19:21:05.543Z,13.91
2023-05-14T19:26:11.515Z,13.74
2023-05-14T19:31:17.435Z,13.54
2023-05-14T19:36:22.940Z,13.49
2023-05-14T19:41:28.560Z,13.43
2023-05-14T19:46:34.091Z,13.42
2023-05-14T19:51:40.045Z,13.17
2023-05-14T19:56:45.671Z,13.13
2023-05-14T20:01:51.079Z,13.03
2023-05-14T20:06:57.462Z,13.23
2023-05-14T20:12:02.779Z,13.31
2023-05-14T20:17:08.493Z,13.34
2023-05-14T20:22:14.228Z,13.19
2023-05-14T20:27:19.272Z,13.14
2023-05-14T20:32:25.961Z,13.11
2023-05-14T20:37:37.171Z,13.06
2023-05-14T20:42:42.536Z,12.78
2023-05-14T20:47:48.122Z,12.57
2023-05-14T20:52:54.191Z,12.41
2023-05-14T20:57:59.646Z,12.18
2023-05-14T21:03:05.460Z,12.04
2023-05-14T21:08:11.674Z,11.80
2023-05-14T21:13:17.050Z,11.41
2023-05-14T21:18:22.587Z,11.21
2023-05-14T21:23:27.652Z,11.17
2023-05-14T21:28:33.210Z,11.03
2023-05-14T21:33:38.697Z,10.80
2023-05-14T21:38:44.361Z,10.68
2023-05-14T21:43:49.864Z,10.64
2023-05-14T21:48:56.312Z,10.64
2023-05-14T21:54:01.810Z,10.23
2023-05-14T21:59:07.217Z,10.41
2023-05-14T22:04:12.846Z,10.35
2023-05-14T22:09:18.394Z,10.30
2023-05-14T22:14:23.971Z,10.34
2023-05-14T22:19:29.797Z,10.40
2023-05-14T22:24:35.408Z,10.25
2023-05-14T22:29:40.849Z,9.98
2023-05-14T22:34:46.325Z,9.77
2023-05-14T22:39:52.057Z,9.72
2023-05-14T22:44:57.918Z,9.82
2023-05-14T22:50:03.606Z,9.70
2023-05-14T22:55:09.995Z,9.58
2023-05-14T23:00:16.229Z,9.72
2023-05-14T23:05:21.931Z,9.75
2023-05-14T23:10:27.798Z,9.79
2023-05-14T23:15:34.188Z,9.60
2023-05-14T23:20:39.614Z,9.43
2023-05-14T23:25:45.096Z,9.30
2023-05-14T23:30:50.704Z,9.39
2023-05-14T23:35:56.166Z,9.41
2023-05-14T23:41:01.570Z,9.73
2023-05-14T23:46:07.258Z,10.16
2023-05-14T23:51:12.934Z,10.48
2023-05-14T23:56:18.654Z,10.67
